メインページ
METAR-TAF:

METAR-TAF

空港 :

リガ国際空港

リガ, ラトビア

緯度: 56-55N, 経度: 023-58E, 海抜: 10m

現時点の気象観測

当レポートは18分前の12:20(UTC)に作成
の風 12kt
気温 5°C
湿度 81%
気圧 1042 hPa
視程10km以上
高度3600ftの千切れ雲あり

METAR: EVRA 161220Z 18012KT 9999 BKN036 05/02 Q1042 R18/190095 NOSIG

時間: 14:38 (12:38 UTC)

予報

当レポートは1時間38分前の11:00(UTC)に作成
予報は16日の 12時(UTC)から 17日の 12時(UTC)まで有効
の風 7kt
視程10km以上
高度3000ftの千切れ雲あり
16日の 14時(UTC)から 16日の 18時(UTC)まで一時的に
視程: 3000m
16日の 21時(UTC)から 16日の 23時(UTC)まで徐々に
南西の風 5kt
16日の 21時(UTC)から 16日の 23時(UTC)まで一時的に
視程: 3000m
高度500ftの千切れ雲あり
16日の 23時(UTC)から 17日の 07時(UTC)まで一時的に
視程: 0600m
高度200ftの千切れ雲あり
17日の 07時(UTC)から 17日の 09時(UTC)まで一時的に
高度500ftの千切れ雲あり

TAF: EVRA 161100Z 1612/1712 17007KT 9999 BKN030 TEMPO 1614/1618 3000 BR BECMG 1621/1623 23005KT TEMPO 1621/1623 3000 BR BKN005 TEMPO 1623/1707 0600 FG BKN002 TEMPO 1707/1709 BKN005

4,000以上の空港の気象観測と天気予報(METAR報とTAF報)

利用可能な観測所は地図上に黄色い丸と赤い丸で示す。

丸の上にカーソルを重ねると観測所名を参照できる。

次にクリックすると気象観測と天気予報を参照できる。

マップの切り替え:黒色「×」印の緑ボタンをクリックして拡大、「-」印の緑ボタンをクリックして縮小、緑色の三角印をクリックして隣りの地図に切り替え


METAR-TAF: